sensor_id;sensor_type;location;lat;lon;timestamp;pressure;altitude;pressure_sealevel;temperature;humidity
59063;BME280;44851;45.648;9.004;2022-10-31T00:01:21;99631.81;;;14.65;63.34
59063;BME280;44851;45.648;9.004;2022-10-31T00:03:47;99627.84;;;14.61;63.20
59063;BME280;44851;45.648;9.004;2022-10-31T00:06:13;99631.91;;;14.55;63.35
59063;BME280;44851;45.648;9.004;2022-10-31T00:08:39;99631.75;;;14.57;63.00
59063;BME280;44851;45.648;9.004;2022-10-31T00:11:08;99631.81;;;14.47;63.13
59063;BME280;44851;45.648;9.004;2022-10-31T00:13:33;99633.81;;;14.53;63.62
59063;BME280;44851;45.648;9.004;2022-10-31T00:15:59;99634.19;;;14.58;63.47
59063;BME280;44851;45.648;9.004;2022-10-31T00:18:24;99632.28;;;14.60;62.99
59063;BME280;44851;45.648;9.004;2022-10-31T00:20:59;99631.53;;;14.50;62.20
59063;BME280;44851;45.648;9.004;2022-10-31T00:23:24;99627.53;;;14.64;63.33
59063;BME280;44851;45.648;9.004;2022-10-31T00:25:49;99633.00;;;14.70;63.14
59063;BME280;44851;45.648;9.004;2022-10-31T00:28:15;99631.19;;;14.53;63.03
59063;BME280;44851;45.648;9.004;2022-10-31T00:30:40;99631.38;;;14.51;63.62
59063;BME280;44851;45.648;9.004;2022-10-31T00:33:06;99632.03;;;14.53;62.69
59063;BME280;44851;45.648;9.004;2022-10-31T00:35:31;99621.41;;;14.55;63.00
59063;BME280;44851;45.648;9.004;2022-10-31T00:37:57;99626.41;;;14.48;63.40
59063;BME280;44851;45.648;9.004;2022-10-31T00:40:22;99626.03;;;14.43;63.15
59063;BME280;44851;45.648;9.004;2022-10-31T00:42:48;99623.63;;;14.32;63.70
59063;BME280;44851;45.648;9.004;2022-10-31T00:45:13;99622.72;;;14.41;63.81
59063;BME280;44851;45.648;9.004;2022-10-31T00:47:39;99626.34;;;14.40;63.37
59063;BME280;44851;45.648;9.004;2022-10-31T00:50:05;99626.72;;;14.45;63.17
59063;BME280;44851;45.648;9.004;2022-10-31T00:52:30;99627.91;;;14.51;63.32
59063;BME280;44851;45.648;9.004;2022-10-31T00:54:56;99623.56;;;14.42;63.04
59063;BME280;44851;45.648;9.004;2022-10-31T00:57:24;99621.38;;;14.37;63.44
59063;BME280;44851;45.648;9.004;2022-10-31T00:59:51;99627.44;;;14.38;63.29
59063;BME280;44851;45.648;9.004;2022-10-31T01:02:16;99632.78;;;14.28;63.57
59063;BME280;44851;45.648;9.004;2022-10-31T01:04:42;99631.69;;;14.21;63.62
59063;BME280;44851;45.648;9.004;2022-10-31T01:07:07;99626.56;;;14.29;63.93
59063;BME280;44851;45.648;9.004;2022-10-31T01:09:33;99627.84;;;14.15;63.72
59063;BME280;44851;45.648;9.004;2022-10-31T01:11:58;99622.63;;;14.06;64.17
59063;BME280;44851;45.648;9.004;2022-10-31T01:14:24;99620.09;;;14.23;63.88
59063;BME280;44851;45.648;9.004;2022-10-31T01:16:50;99623.69;;;14.22;64.28
59063;BME280;44851;45.648;9.004;2022-10-31T01:19:15;99622.72;;;14.23;63.59
59063;BME280;44851;45.648;9.004;2022-10-31T01:21:40;99622.56;;;14.25;63.69
59063;BME280;44851;45.648;9.004;2022-10-31T01:24:06;99615.69;;;14.24;63.26
59063;BME280;44851;45.648;9.004;2022-10-31T01:26:32;99612.91;;;14.25;63.55
59063;BME280;44851;45.648;9.004;2022-10-31T01:29:00;99622.94;;;14.30;63.25
59063;BME280;44851;45.648;9.004;2022-10-31T01:31:30;99618.97;;;14.26;63.41
59063;BME280;44851;45.648;9.004;2022-10-31T01:33:56;99616.78;;;14.21;63.25
59063;BME280;44851;45.648;9.004;2022-10-31T01:36:30;99621.38;;;14.10;63.60
59063;BME280;44851;45.648;9.004;2022-10-31T01:38:59;99619.34;;;14.04;63.83
59063;BME280;44851;45.648;9.004;2022-10-31T01:41:29;99618.09;;;14.08;64.28
59063;BME280;44851;45.648;9.004;2022-10-31T01:43:55;99613.44;;;14.02;64.30
59063;BME280;44851;45.648;9.004;2022-10-31T01:46:27;99615.75;;;14.05;63.84
59063;BME280;44851;45.648;9.004;2022-10-31T01:48:55;99608.59;;;14.07;64.20
59063;BME280;44851;45.648;9.004;2022-10-31T01:51:26;99610.22;;;14.08;63.30
59063;BME280;44851;45.648;9.004;2022-10-31T01:53:55;99606.19;;;14.13;63.99
59063;BME280;44851;45.648;9.004;2022-10-31T01:56:22;99609.63;;;14.14;63.94
59063;BME280;44851;45.648;9.004;2022-10-31T01:58:48;99608.09;;;13.93;63.83
59063;BME280;44851;45.648;9.004;2022-10-31T02:01:14;99612.47;;;14.03;63.97
59063;BME280;44851;45.648;9.004;2022-10-31T02:03:41;99611.09;;;13.98;64.04
59063;BME280;44851;45.648;9.004;2022-10-31T02:06:11;99608.59;;;14.07;63.57
59063;BME280;44851;45.648;9.004;2022-10-31T02:08:39;99609.44;;;13.97;63.72
59063;BME280;44851;45.648;9.004;2022-10-31T02:11:06;99599.94;;;13.96;63.87
59063;BME280;44851;45.648;9.004;2022-10-31T02:13:33;99598.66;;;13.73;64.14
59063;BME280;44851;45.648;9.004;2022-10-31T02:15:59;99598.53;;;13.74;64.35
59063;BME280;44851;45.648;9.004;2022-10-31T02:18:27;99599.38;;;13.75;64.32
59063;BME280;44851;45.648;9.004;2022-10-31T02:24:28;99599.16;;;13.86;63.03
59063;BME280;44851;45.648;9.004;2022-10-31T02:35:13;99594.97;;;13.66;63.82
59063;BME280;44851;45.648;9.004;2022-10-31T02:45:35;99592.38;;;13.66;64.82
59063;BME280;44851;45.648;9.004;2022-10-31T02:48:10;99589.75;;;13.66;64.68
59063;BME280;44851;45.648;9.004;2022-10-31T02:50:41;99586.72;;;13.61;64.60
59063;BME280;44851;45.648;9.004;2022-10-31T02:53:08;99588.81;;;13.57;64.70
59063;BME280;44851;45.648;9.004;2022-10-31T02:58:05;99588.94;;;13.65;64.96
59063;BME280;44851;45.648;9.004;2022-10-31T03:03:36;99586.16;;;13.67;64.13
59063;BME280;44851;45.648;9.004;2022-10-31T03:06:09;99585.97;;;13.78;65.05
59063;BME280;44851;45.648;9.004;2022-10-31T03:11:05;99586.44;;;13.64;65.03
59063;BME280;44851;45.648;9.004;2022-10-31T03:16:52;99586.72;;;13.61;64.01
59063;BME280;44851;45.648;9.004;2022-10-31T03:19:23;99588.34;;;13.71;64.56
59063;BME280;44851;45.648;9.004;2022-10-31T03:22:09;99586.00;;;13.68;64.70
59063;BME280;44851;45.648;9.004;2022-10-31T03:24:37;99589.75;;;13.66;65.17
59063;BME280;44851;45.648;9.004;2022-10-31T03:27:05;99591.13;;;13.70;65.10
59063;BME280;44851;45.648;9.004;2022-10-31T03:29:35;99586.31;;;13.65;65.35
59063;BME280;44851;45.648;9.004;2022-10-31T03:32:05;99581.72;;;13.67;65.57
59063;BME280;44851;45.648;9.004;2022-10-31T03:34:35;99579.50;;;13.72;65.31
59063;BME280;44851;45.648;9.004;2022-10-31T03:37:05;99580.63;;;13.70;64.98
59063;BME280;44851;45.648;9.004;2022-10-31T03:39:32;99587.28;;;13.64;65.52
59063;BME280;44851;45.648;9.004;2022-10-31T03:42:07;99589.84;;;13.74;64.31
59063;BME280;44851;45.648;9.004;2022-10-31T03:44:33;99592.25;;;13.58;65.38
59063;BME280;44851;45.648;9.004;2022-10-31T03:47:00;99593.72;;;13.70;64.80
59063;BME280;44851;45.648;9.004;2022-10-31T03:49:27;99591.97;;;13.61;64.91
59063;BME280;44851;45.648;9.004;2022-10-31T03:52:30;99590.94;;;13.44;63.75
59063;BME280;44851;45.648;9.004;2022-10-31T03:55:13;99588.69;;;13.59;64.13
59063;BME280;44851;45.648;9.004;2022-10-31T04:00:19;99584.94;;;13.61;64.99
59063;BME280;44851;45.648;9.004;2022-10-31T04:05:23;99591.44;;;13.57;65.08
59063;BME280;44851;45.648;9.004;2022-10-31T04:07:52;99589.59;;;13.67;65.09
59063;BME280;44851;45.648;9.004;2022-10-31T04:10:20;99595.25;;;13.63;64.82
59063;BME280;44851;45.648;9.004;2022-10-31T04:12:51;99590.91;;;13.54;65.25
59063;BME280;44851;45.648;9.004;2022-10-31T04:15:19;99585.94;;;13.51;65.38
59063;BME280;44851;45.648;9.004;2022-10-31T04:17:47;99586.44;;;13.64;64.92
59063;BME280;44851;45.648;9.004;2022-10-31T04:20:15;99579.84;;;13.60;65.26
59063;BME280;44851;45.648;9.004;2022-10-31T04:22:41;99586.00;;;13.68;65.00
59063;BME280;44851;45.648;9.004;2022-10-31T04:25:07;99582.31;;;13.61;65.54
59063;BME280;44851;45.648;9.004;2022-10-31T04:27:32;99586.16;;;13.67;64.80
59063;BME280;44851;45.648;9.004;2022-10-31T04:29:58;99581.91;;;13.56;64.39
59063;BME280;44851;45.648;9.004;2022-10-31T04:32:24;99583.47;;;13.49;65.35
59063;BME280;44851;45.648;9.004;2022-10-31T04:34:50;99584.72;;;13.45;65.20
59063;BME280;44851;45.648;9.004;2022-10-31T04:37:15;99585.41;;;13.47;65.45
59063;BME280;44851;45.648;9.004;2022-10-31T04:39:40;99586.38;;;13.46;65.30
59063;BME280;44851;45.648;9.004;2022-10-31T04:42:06;99585.53;;;13.55;65.73
59063;BME280;44851;45.648;9.004;2022-10-31T04:44:31;99579.22;;;13.48;65.27
59063;BME280;44851;45.648;9.004;2022-10-31T04:46:56;99581.69;;;13.50;65.33
59063;BME280;44851;45.648;9.004;2022-10-31T04:49:22;99579.34;;;13.46;65.21
59063;BME280;44851;45.648;9.004;2022-10-31T04:51:47;99582.25;;;13.43;65.66
59063;BME280;44851;45.648;9.004;2022-10-31T04:54:13;99581.56;;;13.41;65.81
59063;BME280;44851;45.648;9.004;2022-10-31T04:56:38;99577.16;;;13.42;66.30
59063;BME280;44851;45.648;9.004;2022-10-31T04:59:03;99576.91;;;13.35;66.02
59063;BME280;44851;45.648;9.004;2022-10-31T05:01:29;99582.09;;;13.45;65.65
59063;BME280;44851;45.648;9.004;2022-10-31T05:03:54;99575.13;;;13.26;66.02
59063;BME280;44851;45.648;9.004;2022-10-31T05:06:19;99577.06;;;13.24;65.87
59063;BME280;44851;45.648;9.004;2022-10-31T05:08:45;99576.91;;;13.26;65.86
59063;BME280;44851;45.648;9.004;2022-10-31T05:11:10;99568.13;;;13.27;66.16
59063;BME280;44851;45.648;9.004;2022-10-31T05:13:36;99570.44;;;13.30;65.45
59063;BME280;44851;45.648;9.004;2022-10-31T05:16:01;99580.75;;;13.31;65.58
59063;BME280;44851;45.648;9.004;2022-10-31T05:18:28;99579.41;;;13.27;65.81
59063;BME280;44851;45.648;9.004;2022-10-31T05:20:53;99587.16;;;13.19;65.59
59063;BME280;44851;45.648;9.004;2022-10-31T05:23:19;99581.63;;;13.22;65.50
59063;BME280;44851;45.648;9.004;2022-10-31T05:25:44;99584.94;;;13.24;65.60
59063;BME280;44851;45.648;9.004;2022-10-31T05:28:09;99583.53;;;13.30;65.63
59063;BME280;44851;45.648;9.004;2022-10-31T05:30:35;99590.72;;;13.18;65.92
59063;BME280;44851;45.648;9.004;2022-10-31T05:33:01;99586.69;;;13.33;66.17
59063;BME280;44851;45.648;9.004;2022-10-31T05:35:31;99587.53;;;13.34;65.42
59063;BME280;44851;45.648;9.004;2022-10-31T05:37:57;99583.13;;;13.25;65.58
59063;BME280;44851;45.648;9.004;2022-10-31T05:40:25;99586.56;;;13.25;65.88
59063;BME280;44851;45.648;9.004;2022-10-31T05:42:52;99581.91;;;13.19;65.38
59063;BME280;44851;45.648;9.004;2022-10-31T05:45:18;99582.06;;;13.17;65.97
59063;BME280;44851;45.648;9.004;2022-10-31T05:47:55;99583.53;;;13.10;65.36
59063;BME280;44851;45.648;9.004;2022-10-31T05:50:21;99584.13;;;13.14;66.64
59063;BME280;44851;45.648;9.004;2022-10-31T05:52:47;99580.41;;;13.16;66.36
59063;BME280;44851;45.648;9.004;2022-10-31T05:55:18;99585.22;;;13.11;65.94
59063;BME280;44851;45.648;9.004;2022-10-31T05:57:44;99579.16;;;13.11;66.32
59063;BME280;44851;45.648;9.004;2022-10-31T06:00:09;99586.75;;;13.14;66.11
59063;BME280;44851;45.648;9.004;2022-10-31T06:02:35;99589.91;;;13.08;66.58
59063;BME280;44851;45.648;9.004;2022-10-31T06:05:01;99587.28;;;13.08;66.52
59063;BME280;44851;45.648;9.004;2022-10-31T06:07:26;99586.88;;;13.03;66.40
59063;BME280;44851;45.648;9.004;2022-10-31T06:09:52;99593.88;;;13.12;66.44
59063;BME280;44851;45.648;9.004;2022-10-31T06:12:17;99600.50;;;13.06;65.82
59063;BME280;44851;45.648;9.004;2022-10-31T06:14:43;99601.75;;;13.02;66.03
59063;BME280;44851;45.648;9.004;2022-10-31T06:17:08;99595.41;;;13.05;66.21
59063;BME280;44851;45.648;9.004;2022-10-31T06:19:33;99592.66;;;13.06;65.97
59063;BME280;44851;45.648;9.004;2022-10-31T06:21:59;99597.34;;;13.03;65.84
59063;BME280;44851;45.648;9.004;2022-10-31T06:24:24;99604.63;;;12.99;66.27
59063;BME280;44851;45.648;9.004;2022-10-31T06:26:50;99610.56;;;13.01;66.03
59063;BME280;44851;45.648;9.004;2022-10-31T06:29:15;99615.50;;;13.04;66.06
59063;BME280;44851;45.648;9.004;2022-10-31T06:31:40;99608.38;;;13.06;66.16
59063;BME280;44851;45.648;9.004;2022-10-31T06:34:06;99611.94;;;13.15;65.69
59063;BME280;44851;45.648;9.004;2022-10-31T06:36:31;99615.78;;;13.20;65.97
59063;BME280;44851;45.648;9.004;2022-10-31T06:38:57;99616.91;;;13.18;65.90
59063;BME280;44851;45.648;9.004;2022-10-31T06:41:22;99617.31;;;13.23;65.94
59063;BME280;44851;45.648;9.004;2022-10-31T06:43:47;99621.84;;;13.21;66.37
59063;BME280;44851;45.648;9.004;2022-10-31T06:46:13;99621.84;;;13.21;66.62
59063;BME280;44851;45.648;9.004;2022-10-31T06:48:40;99619.50;;;13.28;66.95
59063;BME280;44851;45.648;9.004;2022-10-31T06:51:06;99616.56;;;13.40;66.54
59063;BME280;44851;45.648;9.004;2022-10-31T06:53:32;99613.41;;;13.37;66.63
59063;BME280;44851;45.648;9.004;2022-10-31T06:55:57;99619.34;;;13.39;67.38
59063;BME280;44851;45.648;9.004;2022-10-31T06:58:23;99620.84;;;13.41;67.43
59063;BME280;44851;45.648;9.004;2022-10-31T07:00:48;99618.50;;;13.48;67.49
59063;BME280;44851;45.648;9.004;2022-10-31T07:03:14;99620.56;;;13.44;67.78
59063;BME280;44851;45.648;9.004;2022-10-31T07:05:43;99622.03;;;13.57;67.36
59063;BME280;44851;45.648;9.004;2022-10-31T07:08:11;99632.09;;;13.61;67.07
59063;BME280;44851;45.648;9.004;2022-10-31T07:10:39;99630.13;;;13.63;67.10
59063;BME280;44851;45.648;9.004;2022-10-31T07:13:08;99636.47;;;13.70;66.47
59063;BME280;44851;45.648;9.004;2022-10-31T07:15:37;99642.34;;;13.82;66.61
59063;BME280;44851;45.648;9.004;2022-10-31T07:18:05;99641.50;;;13.91;67.34
59063;BME280;44851;45.648;9.004;2022-10-31T07:20:31;99645.84;;;14.00;66.16
59063;BME280;44851;45.648;9.004;2022-10-31T07:22:57;99638.91;;;14.09;66.45
59063;BME280;44851;45.648;9.004;2022-10-31T07:25:24;99647.91;;;14.07;67.67
59063;BME280;44851;45.648;9.004;2022-10-31T07:27:49;99653.75;;;14.28;66.73
59063;BME280;44851;45.648;9.004;2022-10-31T07:30:15;99650.38;;;14.36;66.55
59063;BME280;44851;45.648;9.004;2022-10-31T07:32:45;99653.22;;;14.42;66.01
59063;BME280;44851;45.648;9.004;2022-10-31T07:35:16;99660.38;;;14.68;66.18
59063;BME280;44851;45.648;9.004;2022-10-31T07:37:42;99654.75;;;14.63;65.55
59063;BME280;44851;45.648;9.004;2022-10-31T07:40:08;99663.66;;;14.70;67.31
59063;BME280;44851;45.648;9.004;2022-10-31T07:42:38;99664.41;;;14.80;69.38
59063;BME280;44851;45.648;9.004;2022-10-31T07:45:05;99664.94;;;14.84;66.47
59063;BME280;44851;45.648;9.004;2022-10-31T07:47:38;99674.06;;;15.15;65.43
59063;BME280;44851;45.648;9.004;2022-10-31T07:50:04;99669.03;;;15.22;67.08
59063;BME280;44851;45.648;9.004;2022-10-31T07:52:29;99672.06;;;15.27;66.01
59063;BME280;44851;45.648;9.004;2022-10-31T07:54:55;99664.53;;;15.32;68.25
59063;BME280;44851;45.648;9.004;2022-10-31T07:57:20;99677.16;;;15.28;66.85
59063;BME280;44851;45.648;9.004;2022-10-31T07:59:45;99663.94;;;15.38;64.80
59063;BME280;44851;45.648;9.004;2022-10-31T08:02:11;99670.53;;;15.42;65.73
59063;BME280;44851;45.648;9.004;2022-10-31T08:04:36;99674.19;;;15.49;67.02
59063;BME280;44851;45.648;9.004;2022-10-31T08:07:01;99671.91;;;15.54;68.57
59063;BME280;44851;45.648;9.004;2022-10-31T08:09:27;99674.03;;;15.51;66.19
59063;BME280;44851;45.648;9.004;2022-10-31T08:11:53;99671.78;;;15.56;70.08
59063;BME280;44851;45.648;9.004;2022-10-31T08:14:18;99673.44;;;15.65;68.18
59063;BME280;44851;45.648;9.004;2022-10-31T08:16:43;99676.31;;;15.72;68.65
59063;BME280;44851;45.648;9.004;2022-10-31T08:19:09;99668.34;;;15.90;70.97
59063;BME280;44851;45.648;9.004;2022-10-31T08:21:34;99674.31;;;16.00;69.59
59063;BME280;44851;45.648;9.004;2022-10-31T08:23:59;99673.19;;;16.11;68.91
59063;BME280;44851;45.648;9.004;2022-10-31T08:26:25;99675.91;;;16.27;70.02
59063;BME280;44851;45.648;9.004;2022-10-31T08:28:51;99682.56;;;16.47;66.64
59063;BME280;44851;45.648;9.004;2022-10-31T08:31:16;99680.28;;;16.60;67.95
59063;BME280;44851;45.648;9.004;2022-10-31T08:33:41;99671.75;;;16.83;67.87
59063;BME280;44851;45.648;9.004;2022-10-31T08:36:07;99675.19;;;16.75;64.75
59063;BME280;44851;45.648;9.004;2022-10-31T08:38:32;99680.31;;;17.01;68.40
59063;BME280;44851;45.648;9.004;2022-10-31T08:40:58;99676.88;;;17.42;68.39
59063;BME280;44851;45.648;9.004;2022-10-31T08:43:23;99673.19;;;17.75;64.65
59063;BME280;44851;45.648;9.004;2022-10-31T08:45:49;99674.63;;;18.02;64.75
59063;BME280;44851;45.648;9.004;2022-10-31T08:48:16;99675.84;;;18.23;64.89
59063;BME280;44851;45.648;9.004;2022-10-31T08:50:43;99679.16;;;18.48;62.90
59063;BME280;44851;45.648;9.004;2022-10-31T08:55:37;99683.19;;;18.66;59.87
59063;BME280;44851;45.648;9.004;2022-10-31T08:58:05;99684.00;;;18.67;60.86
59063;BME280;44851;45.648;9.004;2022-10-31T09:00:31;99689.69;;;18.79;63.30
59063;BME280;44851;45.648;9.004;2022-10-31T09:03:02;99686.03;;;18.88;63.77
59063;BME280;44851;45.648;9.004;2022-10-31T09:05:28;99688.09;;;19.01;64.43
59063;BME280;44851;45.648;9.004;2022-10-31T09:07:58;99684.03;;;18.90;60.40
59063;BME280;44851;45.648;9.004;2022-10-31T09:10:25;99688.75;;;19.03;61.78
59063;BME280;44851;45.648;9.004;2022-10-31T09:12:58;99687.78;;;18.95;62.45
59063;BME280;44851;45.648;9.004;2022-10-31T09:15:24;99687.88;;;18.79;63.88
59063;BME280;44851;45.648;9.004;2022-10-31T09:17:50;99690.84;;;18.84;63.37
59063;BME280;44851;45.648;9.004;2022-10-31T09:20:15;99690.91;;;18.99;63.07
59063;BME280;44851;45.648;9.004;2022-10-31T09:22:41;99687.56;;;19.05;62.93
59063;BME280;44851;45.648;9.004;2022-10-31T09:25:07;99695.94;;;19.32;63.30
59063;BME280;44851;45.648;9.004;2022-10-31T09:27:32;99682.22;;;19.51;62.92
59063;BME280;44851;45.648;9.004;2022-10-31T09:29:58;99681.69;;;19.70;60.59
59063;BME280;44851;45.648;9.004;2022-10-31T09:32:23;99676.88;;;19.74;57.19
59063;BME280;44851;45.648;9.004;2022-10-31T09:34:49;99685.34;;;19.99;58.59
59063;BME280;44851;45.648;9.004;2022-10-31T09:37:14;99684.00;;;20.03;58.69
59063;BME280;44851;45.648;9.004;2022-10-31T09:39:40;99677.31;;;20.07;56.41
59063;BME280;44851;45.648;9.004;2022-10-31T09:45:21;99685.03;;;20.23;54.29
59063;BME280;44851;45.648;9.004;2022-10-31T09:47:58;99682.66;;;20.43;56.80
59063;BME280;44851;45.648;9.004;2022-10-31T09:50:37;99687.53;;;20.61;54.21
59063;BME280;44851;45.648;9.004;2022-10-31T09:53:36;99686.66;;;20.75;51.87
59063;BME280;44851;45.648;9.004;2022-10-31T09:56:23;99686.31;;;20.79;53.90
59063;BME280;44851;45.648;9.004;2022-10-31T09:58:53;99670.88;;;20.46;52.55
59063;BME280;44851;45.648;9.004;2022-10-31T10:03:59;99678.41;;;20.85;55.36
59063;BME280;44851;45.648;9.004;2022-10-31T10:06:33;99683.19;;;20.96;53.41
59063;BME280;44851;45.648;9.004;2022-10-31T10:09:01;99681.00;;;21.21;53.52
59063;BME280;44851;45.648;9.004;2022-10-31T10:11:50;99672.81;;;21.16;52.48
59063;BME280;44851;45.648;9.004;2022-10-31T10:14:44;99670.41;;;21.21;49.27
59063;BME280;44851;45.648;9.004;2022-10-31T10:17:14;99670.66;;;21.05;50.82
59063;BME280;44851;45.648;9.004;2022-10-31T10:25:16;99667.31;;;21.46;51.17
59063;BME280;44851;45.648;9.004;2022-10-31T10:30:55;99668.34;;;21.51;52.21
59063;BME280;44851;45.648;9.004;2022-10-31T10:36:26;99665.28;;;21.83;48.91
59063;BME280;44851;45.648;9.004;2022-10-31T10:39:00;99665.19;;;21.97;49.40
59063;BME280;44851;45.648;9.004;2022-10-31T10:41:31;99664.47;;;22.17;50.93
59063;BME280;44851;45.648;9.004;2022-10-31T10:43:57;99655.13;;;22.34;49.31
59063;BME280;44851;45.648;9.004;2022-10-31T10:57:00;99648.69;;;22.90;46.19
59063;BME280;44851;45.648;9.004;2022-10-31T10:59:30;99642.59;;;23.02;45.63
59063;BME280;44851;45.648;9.004;2022-10-31T11:01:58;99655.66;;;22.91;44.94
59063;BME280;44851;45.648;9.004;2022-10-31T11:04:30;99642.56;;;23.09;47.03
59063;BME280;44851;45.648;9.004;2022-10-31T11:06:58;99642.16;;;22.72;46.43
59063;BME280;44851;45.648;9.004;2022-10-31T11:09:23;99649.03;;;22.53;48.30
59063;BME280;44851;45.648;9.004;2022-10-31T11:11:49;99649.81;;;22.41;46.71
59063;BME280;44851;45.648;9.004;2022-10-31T11:14:16;99648.09;;;22.13;47.06
59063;BME280;44851;45.648;9.004;2022-10-31T11:16:45;99646.97;;;21.88;47.06
59063;BME280;44851;45.648;9.004;2022-10-31T11:21:39;99650.09;;;21.63;47.69
59063;BME280;44851;45.648;9.004;2022-10-31T11:26:38;99643.66;;;21.51;47.07
59063;BME280;44851;45.648;9.004;2022-10-31T11:29:05;99646.53;;;21.49;48.08
59063;BME280;44851;45.648;9.004;2022-10-31T11:31:36;99640.59;;;21.47;47.68
59063;BME280;44851;45.648;9.004;2022-10-31T11:34:17;99637.88;;;21.41;48.01
59063;BME280;44851;45.648;9.004;2022-10-31T11:36:44;99638.28;;;21.38;47.81
59063;BME280;44851;45.648;9.004;2022-10-31T11:39:18;99626.47;;;21.40;48.02
59063;BME280;44851;45.648;9.004;2022-10-31T11:41:45;99628.97;;;21.48;47.51
59063;BME280;44851;45.648;9.004;2022-10-31T11:44:23;99628.47;;;21.66;46.45
59063;BME280;44851;45.648;9.004;2022-10-31T11:46:52;99625.63;;;22.09;47.76
59063;BME280;44851;45.648;9.004;2022-10-31T11:52:15;99625.31;;;22.52;45.25
59063;BME280;44851;45.648;9.004;2022-10-31T11:55:30;99622.53;;;22.60;44.01
59063;BME280;44851;45.648;9.004;2022-10-31T11:57:44;99618.44;;;22.77;46.31
59063;BME280;44851;45.648;9.004;2022-10-31T12:00:31;99615.59;;;22.86;44.84
59063;BME280;44851;45.648;9.004;2022-10-31T12:05:42;99609.84;;;23.08;49.19
59063;BME280;44851;45.648;9.004;2022-10-31T12:08:11;99603.31;;;22.98;45.84
59063;BME280;44851;45.648;9.004;2022-10-31T12:13:33;99593.69;;;23.03;43.95
59063;BME280;44851;45.648;9.004;2022-10-31T12:16:25;99591.63;;;23.19;43.92
59063;BME280;44851;45.648;9.004;2022-10-31T12:21:38;99589.38;;;23.35;43.13
59063;BME280;44851;45.648;9.004;2022-10-31T12:24:33;99589.41;;;23.09;43.70
59063;BME280;44851;45.648;9.004;2022-10-31T12:27:14;99579.59;;;23.29;43.41
59063;BME280;44851;45.648;9.004;2022-10-31T12:29:58;99568.88;;;23.56;43.91
59063;BME280;44851;45.648;9.004;2022-10-31T12:32:51;99558.28;;;23.36;44.61
59063;BME280;44851;45.648;9.004;2022-10-31T12:37:58;99555.44;;;23.11;43.25
59063;BME280;44851;45.648;9.004;2022-10-31T12:43:32;99553.59;;;23.18;42.88
59063;BME280;44851;45.648;9.004;2022-10-31T12:45:56;99557.88;;;23.32;44.82
59063;BME280;44851;45.648;9.004;2022-10-31T12:56:44;99548.44;;;23.50;45.52
59063;BME280;44851;45.648;9.004;2022-10-31T13:01:46;99540.50;;;23.30;42.75
59063;BME280;44851;45.648;9.004;2022-10-31T13:04:35;99541.91;;;23.39;42.92
59063;BME280;44851;45.648;9.004;2022-10-31T13:07:05;99529.25;;;23.15;41.24
59063;BME280;44851;45.648;9.004;2022-10-31T13:09:41;99529.22;;;23.21;43.22
59063;BME280;44851;45.648;9.004;2022-10-31T13:12:11;99524.97;;;23.14;42.72
59063;BME280;44851;45.648;9.004;2022-10-31T13:14:49;99525.19;;;22.99;43.54
59063;BME280;44851;45.648;9.004;2022-10-31T13:17:27;99522.72;;;23.04;43.69
59063;BME280;44851;45.648;9.004;2022-10-31T13:20:02;99519.91;;;22.86;42.79
59063;BME280;44851;45.648;9.004;2022-10-31T13:22:32;99519.06;;;22.78;41.20
59063;BME280;44851;45.648;9.004;2022-10-31T13:25:15;99516.19;;;22.80;41.33
59063;BME280;44851;45.648;9.004;2022-10-31T13:27:48;99505.59;;;22.73;41.42
59063;BME280;44851;45.648;9.004;2022-10-31T13:30:24;99506.63;;;22.72;42.25
59063;BME280;44851;45.648;9.004;2022-10-31T13:33:04;99510.50;;;22.76;44.82
59063;BME280;44851;45.648;9.004;2022-10-31T13:35:54;99501.09;;;22.67;43.08
59063;BME280;44851;45.648;9.004;2022-10-31T13:38:37;99493.31;;;22.46;40.80
59063;BME280;44851;45.648;9.004;2022-10-31T13:44:03;99484.72;;;22.30;42.31
59063;BME280;44851;45.648;9.004;2022-10-31T13:48:58;99480.03;;;22.19;42.93
59063;BME280;44851;45.648;9.004;2022-10-31T13:51:28;99470.63;;;22.23;43.17
59063;BME280;44851;45.648;9.004;2022-10-31T13:56:31;99466.75;;;22.13;42.11
59063;BME280;44851;45.648;9.004;2022-10-31T13:59:14;99469.41;;;22.19;43.80
59063;BME280;44851;45.648;9.004;2022-10-31T14:01:51;99479.00;;;22.07;44.01
59063;BME280;44851;45.648;9.004;2022-10-31T14:06:53;99475.09;;;22.03;44.33
59063;BME280;44851;45.648;9.004;2022-10-31T14:09:53;99478.13;;;21.93;45.14
59063;BME280;44851;45.648;9.004;2022-10-31T14:12:37;99471.97;;;21.79;45.45
59063;BME280;44851;45.648;9.004;2022-10-31T14:15:22;99465.22;;;21.84;44.65
59063;BME280;44851;45.648;9.004;2022-10-31T14:22:41;99471.53;;;21.69;45.07
59063;BME280;44851;45.648;9.004;2022-10-31T14:27:50;99471.03;;;21.46;45.38
59063;BME280;44851;45.648;9.004;2022-10-31T14:30:20;99465.91;;;21.38;47.05
59063;BME280;44851;45.648;9.004;2022-10-31T14:32:58;99462.41;;;21.31;46.51
59063;BME280;44851;45.648;9.004;2022-10-31T14:35:37;99460.38;;;21.33;48.48
59063;BME280;44851;45.648;9.004;2022-10-31T14:40:55;99453.19;;;21.20;48.42
59063;BME280;44851;45.648;9.004;2022-10-31T14:43:33;99452.78;;;21.16;48.46
59063;BME280;44851;45.648;9.004;2022-10-31T14:51:19;99460.63;;;21.38;50.36
59063;BME280;44851;45.648;9.004;2022-10-31T14:53:53;99451.81;;;21.31;47.17
59063;BME280;44851;45.648;9.004;2022-10-31T14:56:29;99453.47;;;21.32;47.34
59063;BME280;44851;45.648;9.004;2022-10-31T14:58:58;99459.97;;;21.36;46.88
59063;BME280;44851;45.648;9.004;2022-10-31T15:01:28;99448.53;;;21.22;47.53
59063;BME280;44851;45.648;9.004;2022-10-31T15:04:07;99452.00;;;21.29;48.59
59063;BME280;44851;45.648;9.004;2022-10-31T15:06:42;99449.00;;;21.39;45.10
59063;BME280;44851;45.648;9.004;2022-10-31T15:11:47;99440.78;;;21.20;47.49
59063;BME280;44851;45.648;9.004;2022-10-31T15:14:30;99439.09;;;21.13;48.51
59063;BME280;44851;45.648;9.004;2022-10-31T15:17:01;99445.19;;;21.13;49.11
59063;BME280;44851;45.648;9.004;2022-10-31T15:19:30;99436.22;;;21.14;49.88